createdAt,value
2018-10-07T00:00:27.699Z,12.10
2018-10-07T00:02:55.277Z,13.80
2018-10-07T00:05:22.964Z,13.70
2018-10-07T00:07:50.556Z,18.17
2018-10-07T00:10:18.369Z,14.37
2018-10-07T00:12:45.997Z,13.00
2018-10-07T00:15:13.548Z,26.27
2018-10-07T00:17:41.076Z,18.00
2018-10-07T00:20:08.616Z,12.40
2018-10-07T00:22:36.227Z,11.33
2018-10-07T00:25:03.881Z,17.10
2018-10-07T00:27:31.530Z,12.47
2018-10-07T00:29:59.208Z,19.03
2018-10-07T00:32:26.774Z,14.33
2018-10-07T00:34:54.302Z,10.13
2018-10-07T00:37:21.872Z,17.43
2018-10-07T00:39:49.458Z,12.20
2018-10-07T00:42:17.043Z,13.33
2018-10-07T00:44:44.562Z,12.80
2018-10-07T00:47:12.130Z,18.20
2018-10-07T00:49:39.688Z,17.37
2018-10-07T00:52:07.232Z,11.13
2018-10-07T00:54:34.819Z,9.83
2018-10-07T00:57:02.469Z,14.93
2018-10-07T00:59:30.077Z,13.07
2018-10-07T01:01:57.687Z,14.47
2018-10-07T01:04:25.225Z,17.20
2018-10-07T01:06:52.754Z,14.40
2018-10-07T01:09:20.325Z,13.97
2018-10-07T01:11:47.879Z,11.70
2018-10-07T01:14:15.466Z,20.23
2018-10-07T01:16:43.056Z,12.80
2018-10-07T01:19:10.596Z,20.00
2018-10-07T01:21:38.192Z,15.40
2018-10-07T01:24:05.729Z,10.33
2018-10-07T01:26:33.267Z,14.43
2018-10-07T01:29:00.902Z,15.50
2018-10-07T01:31:28.537Z,12.00
2018-10-07T01:33:56.107Z,12.23
2018-10-07T01:36:23.661Z,18.13
2018-10-07T01:38:51.203Z,11.67
2018-10-07T01:41:18.773Z,12.33
2018-10-07T01:43:46.549Z,11.80
2018-10-07T01:46:14.193Z,14.70
2018-10-07T01:48:41.891Z,14.50
2018-10-07T01:51:09.454Z,11.90
2018-10-07T01:53:37.002Z,16.07
2018-10-07T01:56:05.038Z,10.50
2018-10-07T01:58:32.623Z,9.83
2018-10-07T02:01:00.362Z,10.70
2018-10-07T02:03:27.886Z,10.43
2018-10-07T02:05:55.475Z,11.17
2018-10-07T02:08:22.987Z,13.80
2018-10-07T02:10:50.523Z,15.20
2018-10-07T02:13:18.089Z,10.37
2018-10-07T02:15:45.717Z,11.70
2018-10-07T02:18:13.306Z,10.93
2018-10-07T02:20:40.833Z,10.57
2018-10-07T02:23:08.501Z,18.93
2018-10-07T02:25:36.063Z,8.97
2018-10-07T02:28:03.617Z,9.33
2018-10-07T02:30:31.407Z,9.27
2018-10-07T02:32:59.107Z,9.00
2018-10-07T02:35:26.645Z,10.00
2018-10-07T02:37:54.247Z,11.73
2018-10-07T02:40:21.817Z,9.70
2018-10-07T02:42:49.364Z,9.23
2018-10-07T02:45:16.949Z,18.23
2018-10-07T02:47:44.484Z,20.90
2018-10-07T02:50:20.057Z,10.40
2018-10-07T02:52:49.843Z,11.10
2018-10-07T02:55:20.018Z,12.27
2018-10-07T02:57:48.319Z,10.40
2018-10-07T03:00:16.122Z,9.30
2018-10-07T03:02:43.678Z,11.00
2018-10-07T03:05:11.299Z,10.27
2018-10-07T03:07:39.129Z,8.43
2018-10-07T03:10:06.728Z,9.03
2018-10-07T03:12:34.256Z,11.50
2018-10-07T03:15:02.009Z,7.33
2018-10-07T03:17:29.737Z,12.10
2018-10-07T03:19:57.598Z,7.80
2018-10-07T03:22:25.199Z,9.17
2018-10-07T03:24:52.722Z,7.07
2018-10-07T03:27:20.290Z,6.80
2018-10-07T03:29:47.804Z,7.10
2018-10-07T03:32:15.506Z,11.83
2018-10-07T03:34:43.045Z,7.40
2018-10-07T03:37:10.608Z,6.23
2018-10-07T03:39:38.295Z,8.50
2018-10-07T03:42:05.867Z,6.27
2018-10-07T03:44:33.519Z,6.27
2018-10-07T03:47:01.168Z,7.33
2018-10-07T03:49:28.812Z,7.20
2018-10-07T03:51:56.594Z,7.47
2018-10-07T03:54:24.164Z,11.43
2018-10-07T03:56:51.730Z,6.70
2018-10-07T03:59:19.306Z,5.80
2018-10-07T04:01:46.998Z,7.27
2018-10-07T04:04:14.593Z,6.27
2018-10-07T04:06:42.186Z,6.20
2018-10-07T04:09:11.084Z,6.53
2018-10-07T04:11:39.260Z,5.60
2018-10-07T04:14:06.781Z,6.60
2018-10-07T04:16:34.325Z,7.60
2018-10-07T04:19:02.000Z,6.40
2018-10-07T04:21:29.701Z,8.10
2018-10-07T04:23:57.223Z,7.13
2018-10-07T04:26:24.753Z,6.93
2018-10-07T04:28:52.336Z,10.40
2018-10-07T04:31:19.969Z,5.73
2018-10-07T04:33:47.546Z,9.20
2018-10-07T04:36:15.088Z,5.93
2018-10-07T04:38:42.650Z,9.50
2018-10-07T04:41:10.248Z,12.30
2018-10-07T04:43:37.792Z,7.37
2018-10-07T04:46:05.527Z,8.37
2018-10-07T04:48:33.065Z,10.40
2018-10-07T04:51:00.729Z,5.67
2018-10-07T04:53:28.541Z,6.57
2018-10-07T04:55:56.105Z,10.83
2018-10-07T04:58:23.707Z,5.70
2018-10-07T05:00:51.300Z,8.13
2018-10-07T05:03:18.863Z,7.40
2018-10-07T05:05:46.878Z,6.57
2018-10-07T05:08:14.679Z,7.63
2018-10-07T05:10:49.262Z,6.30
2018-10-07T05:13:20.703Z,5.43
2018-10-07T05:15:51.172Z,4.33
2018-10-07T05:18:18.785Z,3.63
2018-10-07T05:20:46.441Z,7.57
2018-10-07T05:23:13.995Z,4.93
2018-10-07T05:25:41.563Z,6.13
2018-10-07T05:28:09.097Z,15.30
2018-10-07T05:30:36.648Z,6.63
2018-10-07T05:33:04.249Z,5.27
2018-10-07T05:35:31.844Z,4.67
2018-10-07T05:37:59.788Z,7.63
2018-10-07T05:40:27.350Z,8.07
2018-10-07T05:42:54.886Z,11.57
2018-10-07T05:45:22.417Z,10.50
2018-10-07T05:47:49.977Z,15.27
2018-10-07T05:50:17.586Z,6.30
2018-10-07T05:52:45.169Z,5.70
2018-10-07T05:55:12.736Z,5.97
2018-10-07T05:57:41.319Z,7.87
2018-10-07T06:00:10.217Z,6.70
2018-10-07T06:02:38.059Z,6.67
2018-10-07T06:05:05.704Z,6.23
2018-10-07T06:07:33.407Z,11.23
2018-10-07T06:10:01.008Z,5.60
2018-10-07T06:12:28.680Z,3.27
2018-10-07T06:15:07.529Z,8.70
2018-10-07T06:17:35.095Z,8.30
2018-10-07T06:20:02.708Z,9.63
2018-10-07T06:22:30.346Z,9.37
2018-10-07T06:24:57.937Z,10.40
2018-10-07T06:27:25.494Z,6.70
2018-10-07T06:29:53.094Z,6.97
2018-10-07T06:32:20.641Z,4.97
2018-10-07T06:34:48.282Z,8.50
2018-10-07T06:37:15.837Z,6.63
2018-10-07T06:39:43.436Z,5.53
2018-10-07T06:42:10.999Z,6.40
2018-10-07T06:44:38.649Z,8.97
2018-10-07T06:47:06.323Z,9.90
2018-10-07T06:49:33.900Z,14.83
2018-10-07T06:52:01.551Z,10.87
2018-10-07T06:54:29.201Z,12.00
2018-10-07T06:56:56.807Z,13.43
2018-10-07T06:59:24.439Z,5.73
2018-10-07T07:01:52.029Z,9.23
2018-10-07T07:04:19.595Z,10.33
2018-10-07T07:06:47.242Z,5.77
2018-10-07T07:09:14.795Z,5.87
2018-10-07T07:11:42.339Z,6.73
2018-10-07T07:14:09.879Z,9.60
2018-10-07T07:16:37.418Z,7.80
2018-10-07T07:19:05.144Z,6.50
2018-10-07T07:21:32.779Z,5.47
2018-10-07T07:24:00.539Z,5.40
2018-10-07T07:26:28.160Z,3.87
2018-10-07T07:28:55.702Z,6.27
2018-10-07T07:31:23.349Z,9.30
2018-10-07T07:33:50.877Z,5.03
2018-10-07T07:36:18.467Z,6.60
2018-10-07T07:38:46.038Z,15.10
2018-10-07T07:41:13.642Z,10.00
2018-10-07T07:43:41.175Z,7.13
2018-10-07T07:46:08.791Z,10.73
2018-10-07T07:48:36.317Z,8.43
2018-10-07T07:51:03.901Z,7.90
2018-10-07T07:53:31.502Z,8.93
2018-10-07T07:55:59.204Z,16.50
2018-10-07T07:58:26.833Z,10.87
2018-10-07T08:00:54.393Z,8.53
2018-10-07T08:03:21.942Z,9.93
2018-10-07T08:05:49.480Z,8.20
2018-10-07T08:08:17.084Z,7.77
2018-10-07T08:10:44.666Z,8.40
2018-10-07T08:13:12.254Z,7.97
2018-10-07T08:15:39.803Z,8.10
2018-10-07T08:18:07.395Z,8.47
2018-10-07T08:20:34.959Z,7.97
2018-10-07T08:23:02.574Z,11.00
2018-10-07T08:25:30.216Z,8.53
2018-10-07T08:27:57.832Z,8.20
2018-10-07T08:30:25.430Z,5.50
2018-10-07T08:32:53.037Z,5.60
2018-10-07T08:35:20.670Z,9.70
2018-10-07T08:37:48.168Z,4.57
2018-10-07T08:40:15.791Z,6.27
2018-10-07T08:42:43.415Z,4.17
2018-10-07T08:45:11.031Z,4.17
2018-10-07T08:47:38.644Z,5.07
2018-10-07T08:50:06.342Z,7.67
2018-10-07T08:52:33.920Z,6.47
2018-10-07T08:55:01.564Z,5.73
2018-10-07T08:57:29.209Z,7.77
2018-10-07T08:59:56.836Z,4.90
2018-10-07T09:02:24.369Z,8.50
2018-10-07T09:04:52.002Z,3.80
2018-10-07T09:07:19.572Z,6.47
2018-10-07T09:09:47.223Z,9.17
2018-10-07T09:12:14.817Z,6.53
2018-10-07T09:14:42.488Z,7.60
2018-10-07T09:17:10.066Z,11.13
2018-10-07T09:19:37.663Z,50.40
2018-10-07T09:22:05.295Z,203.87
2018-10-07T09:24:32.962Z,191.83
2018-10-07T09:27:00.679Z,206.90
2018-10-07T09:29:28.442Z,10.07
2018-10-07T09:31:56.091Z,21.13
2018-10-07T09:34:23.719Z,45.83
2018-10-07T09:36:51.344Z,4.73
2018-10-07T09:39:18.933Z,78.90
2018-10-07T09:41:46.551Z,20.00
2018-10-07T09:44:14.132Z,56.27
2018-10-07T09:46:41.854Z,7.90
2018-10-07T09:49:09.479Z,29.47
2018-10-07T09:51:37.134Z,6.80
2018-10-07T09:54:04.943Z,16.13
2018-10-07T09:56:32.555Z,16.00
2018-10-07T09:59:00.252Z,4.67
2018-10-07T10:01:27.941Z,3.17
2018-10-07T10:03:55.602Z,4.27
2018-10-07T10:06:23.214Z,1.63
2018-10-07T10:08:50.862Z,2.53
2018-10-07T10:11:18.710Z,1.97
2018-10-07T10:13:46.292Z,3.00
2018-10-07T10:16:14.013Z,4.10
2018-10-07T10:18:45.481Z,3.00
2018-10-07T10:21:34.601Z,3.60
2018-10-07T10:25:10.369Z,8.20
2018-10-07T10:27:47.585Z,3.87
2018-10-07T10:31:01.426Z,2.80
2018-10-07T10:33:31.932Z,2.17
2018-10-07T10:36:09.606Z,3.77
2018-10-07T10:38:42.041Z,1.90
2018-10-07T10:41:13.284Z,4.37
2018-10-07T10:43:46.967Z,2.00
2018-10-07T10:46:25.762Z,4.23
2018-10-07T10:49:31.688Z,2.10
2018-10-07T10:52:12.465Z,2.20
2018-10-07T10:54:47.988Z,2.07
2018-10-07T10:57:20.678Z,2.57
2018-10-07T11:00:01.687Z,2.37
2018-10-07T11:02:37.216Z,2.00
2018-10-07T11:05:47.812Z,4.67
2018-10-07T11:08:56.619Z,3.07
2018-10-07T11:11:33.846Z,5.17
2018-10-07T11:14:10.732Z,2.83
2018-10-07T11:16:49.675Z,3.57
2018-10-07T11:19:24.584Z,1.80
2018-10-07T11:24:04.994Z,2.50
2018-10-07T11:26:42.810Z,3.70
2018-10-07T11:29:19.492Z,1.27
2018-10-07T11:32:11.368Z,5.30
2018-10-07T11:34:51.476Z,1.40
2018-10-07T11:37:30.225Z,2.77
2018-10-07T11:40:28.683Z,2.50
2018-10-07T11:45:37.311Z,2.27
2018-10-07T11:48:18.728Z,3.27
2018-10-07T11:52:54.960Z,3.83
2018-10-07T11:55:25.670Z,1.50
2018-10-07T11:57:53.359Z,2.50
2018-10-07T12:00:21.365Z,1.90
2018-10-07T12:02:49.343Z,1.50
2018-10-07T12:05:17.073Z,2.40
2018-10-07T12:07:44.803Z,12.43
2018-10-07T12:10:12.495Z,6.00
2018-10-07T12:12:41.001Z,7.63
2018-10-07T12:15:08.692Z,1.53
2018-10-07T12:17:36.343Z,11.00
2018-10-07T12:20:04.077Z,23.30
2018-10-07T12:22:32.444Z,41.77
2018-10-07T12:25:00.201Z,26.63
2018-10-07T12:27:28.744Z,20.80
2018-10-07T12:29:56.415Z,2.40
2018-10-07T12:32:24.075Z,1.80
2018-10-07T12:34:51.719Z,1.57
2018-10-07T12:37:19.366Z,1.30
2018-10-07T12:39:47.121Z,1.60
2018-10-07T12:42:15.512Z,3.50
2018-10-07T12:44:43.220Z,18.37
2018-10-07T12:47:10.844Z,4.50
2018-10-07T12:49:38.632Z,8.40
2018-10-07T12:52:06.641Z,4.83
2018-10-07T12:54:34.389Z,3.80
2018-10-07T12:57:02.087Z,2.13
2018-10-07T12:59:29.886Z,5.50
2018-10-07T13:01:57.514Z,3.77
2018-10-07T13:04:26.192Z,2.57
2018-10-07T13:06:53.881Z,4.30
2018-10-07T13:09:21.748Z,4.20
2018-10-07T13:11:49.428Z,8.80
2018-10-07T13:14:17.161Z,6.97
2018-10-07T13:16:44.823Z,6.50
2018-10-07T13:19:12.499Z,5.87
2018-10-07T13:21:40.154Z,6.33
2018-10-07T13:24:08.548Z,9.60
2018-10-07T13:26:36.497Z,6.20
2018-10-07T13:29:04.226Z,5.00
2018-10-07T13:31:32.022Z,10.63
2018-10-07T13:33:59.839Z,8.17
2018-10-07T13:36:27.550Z,10.10
2018-10-07T13:38:55.213Z,8.33
2018-10-07T13:41:22.909Z,8.10
2018-10-07T13:43:50.523Z,7.30
2018-10-07T13:46:18.113Z,8.60
2018-10-07T13:48:45.779Z,9.30
2018-10-07T13:51:13.479Z,6.13
2018-10-07T13:53:41.280Z,8.40
2018-10-07T13:56:09.151Z,7.50
2018-10-07T13:58:36.825Z,4.37
2018-10-07T14:01:04.476Z,6.03
2018-10-07T14:03:32.229Z,8.43
2018-10-07T14:06:00.138Z,6.83
2018-10-07T14:08:27.829Z,8.23
2018-10-07T14:10:55.515Z,6.90
2018-10-07T14:13:23.192Z,7.33
2018-10-07T14:15:51.278Z,6.13
2018-10-07T14:18:19.862Z,10.77
2018-10-07T14:20:47.981Z,6.27
2018-10-07T14:23:15.849Z,6.10
2018-10-07T14:25:43.529Z,6.50
2018-10-07T14:28:11.182Z,7.13
2018-10-07T14:30:38.857Z,6.53
2018-10-07T14:33:06.478Z,8.80
2018-10-07T14:35:34.170Z,8.93
2018-10-07T14:38:01.918Z,6.97
2018-10-07T14:40:29.929Z,6.30
2018-10-07T14:42:58.412Z,7.63
2018-10-07T14:45:26.321Z,12.00
2018-10-07T14:47:54.734Z,6.03
2018-10-07T14:50:22.807Z,9.83
2018-10-07T14:52:50.481Z,9.80
2018-10-07T14:55:18.217Z,6.07
2018-10-07T14:57:45.900Z,10.37
2018-10-07T15:00:13.845Z,9.93
2018-10-07T15:02:41.728Z,7.67
2018-10-07T15:05:09.426Z,10.30
2018-10-07T15:07:37.126Z,12.60
2018-10-07T15:10:04.992Z,10.53
2018-10-07T15:12:32.924Z,22.83
2018-10-07T15:15:00.799Z,23.53
2018-10-07T15:17:29.522Z,19.63
2018-10-07T15:19:57.240Z,18.90
2018-10-07T15:22:24.949Z,21.97
2018-10-07T15:24:53.226Z,15.97
2018-10-07T15:27:21.100Z,15.40
2018-10-07T15:29:48.888Z,14.30
2018-10-07T15:32:16.590Z,14.07
2018-10-07T15:34:44.804Z,12.90
2018-10-07T15:37:12.459Z,14.37
2018-10-07T15:39:40.158Z,12.10
2018-10-07T15:42:07.861Z,13.83
2018-10-07T15:44:35.537Z,13.33
2018-10-07T15:47:03.393Z,14.10
2018-10-07T15:49:31.102Z,17.00
2018-10-07T15:51:59.988Z,15.27
2018-10-07T15:54:29.089Z,13.77
2018-10-07T15:56:56.911Z,17.60
2018-10-07T15:59:26.197Z,17.13
2018-10-07T16:01:54.038Z,13.57
2018-10-07T16:04:22.890Z,15.27
2018-10-07T16:06:51.458Z,14.83
2018-10-07T16:09:19.290Z,17.10
2018-10-07T16:11:47.061Z,16.30
2018-10-07T16:14:14.846Z,19.03
2018-10-07T16:16:42.598Z,16.30
2018-10-07T16:19:10.310Z,15.03
2018-10-07T16:21:38.110Z,14.50
2018-10-07T16:24:05.865Z,11.40
2018-10-07T16:26:33.835Z,15.10
2018-10-07T16:29:01.792Z,17.33
2018-10-07T16:31:29.716Z,10.80
2018-10-07T16:33:57.825Z,10.03
2018-10-07T16:36:25.777Z,8.17
2018-10-07T16:38:53.616Z,9.40
2018-10-07T16:41:21.544Z,7.70
2018-10-07T16:43:49.329Z,7.60
2018-10-07T16:46:17.091Z,9.53
2018-10-07T16:48:49.397Z,9.30
2018-10-07T16:51:17.633Z,6.90
2018-10-07T16:53:45.383Z,9.30
2018-10-07T16:56:13.189Z,7.43
2018-10-07T16:58:41.017Z,13.20
2018-10-07T17:01:10.263Z,8.13
2018-10-07T17:03:38.717Z,8.80
2018-10-07T17:06:07.729Z,9.17
2018-10-07T17:08:35.686Z,9.47
2018-10-07T17:11:03.731Z,12.23
2018-10-07T17:13:31.914Z,11.30
2018-10-07T17:16:00.740Z,8.40
2018-10-07T17:18:29.174Z,14.60
2018-10-07T17:20:57.437Z,84.53
2018-10-07T17:23:25.429Z,41.47
2018-10-07T17:25:53.465Z,29.93
2018-10-07T17:28:21.989Z,19.23
2018-10-07T17:30:49.848Z,23.77
2018-10-07T17:33:17.737Z,19.20
2018-10-07T17:35:45.582Z,14.30
2018-10-07T17:38:13.367Z,13.43
2018-10-07T17:40:41.319Z,11.97
2018-10-07T17:43:09.271Z,15.47
2018-10-07T17:45:37.137Z,11.70
2018-10-07T17:48:05.027Z,13.30
2018-10-07T17:50:34.077Z,14.57
2018-10-07T17:53:02.853Z,22.73
2018-10-07T17:55:30.988Z,23.23
2018-10-07T17:57:59.955Z,18.60
2018-10-07T18:00:27.803Z,18.00
2018-10-07T18:02:55.902Z,15.77
2018-10-07T18:05:24.456Z,10.63
2018-10-07T18:07:52.533Z,22.17
2018-10-07T18:10:20.759Z,15.10
2018-10-07T18:12:48.747Z,11.70
2018-10-07T18:15:16.965Z,14.07
2018-10-07T18:17:45.060Z,12.37
2018-10-07T18:20:14.125Z,13.27
2018-10-07T18:22:41.987Z,14.60
2018-10-07T18:25:09.779Z,13.07
2018-10-07T18:27:37.731Z,16.70
2018-10-07T18:30:05.788Z,10.60
2018-10-07T18:32:33.690Z,11.40
2018-10-07T18:35:02.414Z,10.50
2018-10-07T18:37:30.720Z,9.83
2018-10-07T18:39:58.658Z,10.80
2018-10-07T18:42:26.809Z,11.50
2018-10-07T18:44:54.770Z,13.50
2018-10-07T18:47:23.844Z,9.40
2018-10-07T18:49:52.567Z,9.97
2018-10-07T18:52:21.404Z,8.07
2018-10-07T18:54:50.288Z,10.23
2018-10-07T18:57:19.046Z,11.73
2018-10-07T18:59:47.968Z,12.70
2018-10-07T19:02:15.951Z,22.30
2018-10-07T19:04:44.707Z,13.07
2018-10-07T19:07:12.715Z,15.63
2018-10-07T19:09:41.103Z,13.00
2018-10-07T19:12:09.311Z,16.53
2018-10-07T19:14:37.367Z,14.70
2018-10-07T19:17:05.360Z,15.23
2018-10-07T19:19:33.447Z,12.07
2018-10-07T19:22:01.856Z,16.10
2018-10-07T19:24:30.593Z,14.33
2018-10-07T19:26:58.725Z,12.93
2018-10-07T19:29:26.906Z,11.57
2018-10-07T19:31:55.557Z,10.00
2018-10-07T19:34:23.343Z,8.80
2018-10-07T19:36:51.397Z,12.60
2018-10-07T19:39:19.221Z,7.60
2018-10-07T19:41:47.004Z,12.23
2018-10-07T19:44:14.857Z,14.80
2018-10-07T19:46:43.259Z,12.53
2018-10-07T19:49:11.086Z,12.00
2018-10-07T19:51:39.057Z,13.17
2018-10-07T19:54:07.326Z,13.80
2018-10-07T19:56:35.725Z,13.40
2018-10-07T19:59:04.202Z,9.70
2018-10-07T20:01:32.268Z,11.07
2018-10-07T20:04:00.508Z,13.93
2018-10-07T20:06:28.968Z,11.60
2018-10-07T20:08:56.752Z,8.87
2018-10-07T20:11:25.290Z,11.63
2018-10-07T20:13:53.012Z,12.53
2018-10-07T20:16:21.408Z,9.97
2018-10-07T20:18:49.252Z,18.80
2018-10-07T20:21:18.277Z,18.60
2018-10-07T20:23:46.768Z,13.17
2018-10-07T20:26:14.501Z,14.27
2018-10-07T20:28:42.320Z,13.20
2018-10-07T20:31:10.337Z,9.60
2018-10-07T20:33:38.076Z,7.93
2018-10-07T20:36:06.877Z,9.20
2018-10-07T20:38:34.912Z,8.37
2018-10-07T20:41:02.869Z,8.00
2018-10-07T20:43:31.148Z,7.13
2018-10-07T20:45:59.187Z,13.17
2018-10-07T20:48:27.154Z,13.63
2018-10-07T20:50:55.112Z,12.53
2018-10-07T20:53:22.835Z,13.83
2018-10-07T20:55:50.850Z,10.50
2018-10-07T20:58:18.653Z,11.77
2018-10-07T21:00:46.470Z,13.43
2018-10-07T21:03:14.196Z,13.30
2018-10-07T21:05:41.925Z,12.43
2018-10-07T21:08:09.797Z,10.97
2018-10-07T21:10:37.559Z,10.20
2018-10-07T21:13:05.570Z,11.90
2018-10-07T21:15:33.589Z,12.07
2018-10-07T21:18:01.657Z,15.90
2018-10-07T21:20:29.837Z,16.70
2018-10-07T21:22:57.729Z,14.50
2018-10-07T21:25:25.799Z,13.07
2018-10-07T21:27:53.771Z,10.67
2018-10-07T21:30:21.451Z,13.47
2018-10-07T21:32:49.287Z,18.80
2018-10-07T21:35:16.961Z,16.50
2018-10-07T21:37:44.617Z,22.07
2018-10-07T21:40:12.303Z,10.57
2018-10-07T21:42:40.161Z,17.43
2018-10-07T21:45:08.007Z,13.13
2018-10-07T21:47:35.901Z,13.80
2018-10-07T21:50:04.066Z,15.73
2018-10-07T21:52:32.564Z,13.70
2018-10-07T21:55:00.587Z,16.03
2018-10-07T21:57:28.474Z,20.20
2018-10-07T21:59:56.074Z,15.70
2018-10-07T22:02:23.623Z,17.20
2018-10-07T22:04:51.172Z,14.93
2018-10-07T22:07:19.170Z,12.77
2018-10-07T22:09:46.926Z,11.00
2018-10-07T22:12:14.486Z,10.37
2018-10-07T22:14:42.086Z,16.00
2018-10-07T22:17:09.596Z,11.60
2018-10-07T22:19:37.181Z,14.43
2018-10-07T22:22:04.952Z,13.40
2018-10-07T22:24:32.590Z,10.03
2018-10-07T22:27:01.199Z,12.53
2018-10-07T22:29:29.368Z,10.77
2018-10-07T22:31:57.030Z,11.23
2018-10-07T22:34:24.544Z,11.00
2018-10-07T22:36:52.131Z,14.80
2018-10-07T22:39:19.685Z,13.50
2018-10-07T22:41:47.353Z,12.83
2018-10-07T22:44:14.885Z,15.97
2018-10-07T22:46:42.425Z,13.40
2018-10-07T22:49:10.025Z,15.80
2018-10-07T22:51:37.613Z,15.23
2018-10-07T22:54:05.257Z,15.03
2018-10-07T22:56:32.906Z,13.07
2018-10-07T22:59:00.675Z,12.10
2018-10-07T23:01:28.403Z,14.40
2018-10-07T23:03:55.950Z,13.20
2018-10-07T23:06:23.472Z,12.30
2018-10-07T23:08:50.991Z,12.20
2018-10-07T23:11:19.503Z,10.83
2018-10-07T23:13:49.822Z,13.33
2018-10-07T23:16:17.629Z,14.87
2018-10-07T23:18:45.163Z,12.27
2018-10-07T23:21:12.698Z,17.60
2018-10-07T23:23:40.192Z,12.03
2018-10-07T23:26:07.733Z,14.20
2018-10-07T23:28:35.302Z,13.63
2018-10-07T23:31:03.152Z,12.70
2018-10-07T23:33:30.877Z,16.70
2018-10-07T23:35:58.564Z,12.60
2018-10-07T23:38:26.207Z,14.87
2018-10-07T23:40:55.019Z,11.60
2018-10-07T23:43:22.589Z,12.40
2018-10-07T23:45:50.228Z,13.07
2018-10-07T23:48:17.733Z,15.80
2018-10-07T23:50:45.365Z,13.27
2018-10-07T23:53:12.927Z,13.73
2018-10-07T23:55:40.481Z,12.70
2018-10-07T23:58:08.031Z,11.83
